createdAt,value
2023-05-19T00:01:20.288Z,56.19
2023-05-19T00:03:57.569Z,56.35
2023-05-19T00:06:31.731Z,55.97
2023-05-19T00:09:04.618Z,56.39
2023-05-19T00:11:31.817Z,56.27
2023-05-19T00:14:00.045Z,56.08
2023-05-19T00:16:28.523Z,55.99
2023-05-19T00:18:57.964Z,56.13
2023-05-19T00:21:25.061Z,56.65
2023-05-19T00:23:52.543Z,56.37
2023-05-19T00:26:19.632Z,56.33
2023-05-19T00:28:46.722Z,55.92
2023-05-19T00:31:13.839Z,56.10
2023-05-19T00:33:40.896Z,57.26
2023-05-19T00:36:08.488Z,56.99
2023-05-19T00:38:36.617Z,57.20
2023-05-19T00:41:04.836Z,56.97
2023-05-19T00:43:34.250Z,57.43
2023-05-19T00:46:01.437Z,57.31
2023-05-19T00:48:28.518Z,57.76
2023-05-19T00:51:02.439Z,57.79
2023-05-19T00:53:30.972Z,57.82
2023-05-19T00:55:58.736Z,58.12
2023-05-19T00:58:29.342Z,58.18
2023-05-19T01:01:03.106Z,58.52
2023-05-19T01:03:33.010Z,58.26
2023-05-19T01:06:07.510Z,58.71
2023-05-19T01:08:37.132Z,58.45
2023-05-19T01:11:08.005Z,58.78
2023-05-19T01:13:35.819Z,58.55
2023-05-19T01:16:12.685Z,59.19
2023-05-19T01:18:46.369Z,58.81
2023-05-19T01:21:26.748Z,58.98
2023-05-19T01:24:27.922Z,58.89
2023-05-19T01:27:16.931Z,58.69
2023-05-19T01:30:11.824Z,58.70
2023-05-19T01:32:41.994Z,58.24
2023-05-19T01:35:10.539Z,57.84
2023-05-19T01:37:39.044Z,57.82
2023-05-19T01:40:08.281Z,57.56
2023-05-19T01:42:37.867Z,57.85
2023-05-19T01:45:06.773Z,57.36
2023-05-19T01:47:38.379Z,57.28
2023-05-19T01:50:06.623Z,57.53
2023-05-19T01:52:33.793Z,57.36
2023-05-19T01:55:00.984Z,57.67
2023-05-19T01:57:34.487Z,57.54
2023-05-19T02:00:15.649Z,57.55
2023-05-19T02:03:07.430Z,57.16
2023-05-19T02:05:46.263Z,57.96
2023-05-19T02:08:19.724Z,57.62
2023-05-19T02:10:51.868Z,57.94
2023-05-19T02:13:21.440Z,58.18
2023-05-19T02:15:51.556Z,58.34
2023-05-19T02:18:20.356Z,58.33
2023-05-19T02:20:48.537Z,59.14
2023-05-19T02:23:15.837Z,58.63
2023-05-19T02:25:43.033Z,58.80
2023-05-19T02:28:10.302Z,58.82
2023-05-19T02:30:37.694Z,59.01
2023-05-19T02:33:06.678Z,58.67
2023-05-19T02:35:33.925Z,59.25
2023-05-19T02:38:01.140Z,59.37
2023-05-19T02:40:28.331Z,59.53
2023-05-19T02:42:57.021Z,60.02
2023-05-19T02:45:24.201Z,60.14
2023-05-19T02:47:51.557Z,60.68
2023-05-19T02:50:18.832Z,60.23
2023-05-19T02:52:45.931Z,60.54
2023-05-19T02:55:17.386Z,60.70
2023-05-19T02:57:44.617Z,61.40
2023-05-19T03:00:12.254Z,61.53
2023-05-19T03:02:39.762Z,61.59
2023-05-19T03:05:08.226Z,61.70
2023-05-19T03:07:35.298Z,62.18
2023-05-19T03:10:06.586Z,62.19
2023-05-19T03:12:33.841Z,62.09
2023-05-19T03:15:01.095Z,61.66
2023-05-19T03:17:33.621Z,61.91
2023-05-19T03:20:01.560Z,62.13
2023-05-19T03:22:28.660Z,62.55
2023-05-19T03:24:55.947Z,62.77
2023-05-19T03:27:23.093Z,63.24
2023-05-19T03:29:50.772Z,63.65
2023-05-19T03:32:17.884Z,63.87
2023-05-19T03:34:45.126Z,63.94
2023-05-19T03:37:12.988Z,64.10
2023-05-19T03:39:40.090Z,64.68
2023-05-19T03:42:07.224Z,64.74
2023-05-19T03:44:34.299Z,64.46
2023-05-19T03:47:01.385Z,65.04
2023-05-19T03:49:28.529Z,65.00
2023-05-19T03:51:55.904Z,65.12
2023-05-19T03:54:23.262Z,65.00
2023-05-19T03:56:50.345Z,65.11
2023-05-19T03:59:17.403Z,65.00
2023-05-19T04:01:44.502Z,65.00
2023-05-19T04:04:11.640Z,65.58
2023-05-19T04:06:38.835Z,65.82
2023-05-19T04:09:11.963Z,66.24
2023-05-19T04:11:39.757Z,66.72
2023-05-19T04:14:07.245Z,67.04
2023-05-19T04:16:34.390Z,67.20
2023-05-19T04:19:01.885Z,67.37
2023-05-19T04:21:29.138Z,67.09
2023-05-19T04:23:58.038Z,67.13
2023-05-19T04:26:26.403Z,66.92
2023-05-19T04:28:53.929Z,66.39
2023-05-19T04:31:21.800Z,66.36
2023-05-19T04:33:49.715Z,66.25
2023-05-19T04:36:21.449Z,65.88
2023-05-19T04:38:48.901Z,65.16
2023-05-19T04:41:16.510Z,64.76
2023-05-19T04:43:44.765Z,64.89
2023-05-19T04:46:13.690Z,64.42
2023-05-19T04:48:41.392Z,64.29
2023-05-19T04:51:08.596Z,64.06
2023-05-19T04:53:36.666Z,64.01
2023-05-19T04:56:05.120Z,63.65
2023-05-19T04:58:32.392Z,62.71
2023-05-19T05:00:59.463Z,62.50
2023-05-19T05:03:26.739Z,62.20
2023-05-19T05:05:54.041Z,62.12
2023-05-19T05:08:23.335Z,61.56
2023-05-19T05:10:52.443Z,61.49
2023-05-19T05:13:21.786Z,61.17
2023-05-19T05:15:49.320Z,60.99
2023-05-19T05:18:16.584Z,61.15
2023-05-19T05:20:44.568Z,61.35
2023-05-19T05:23:14.510Z,61.07
2023-05-19T05:25:42.612Z,61.10
2023-05-19T05:28:09.835Z,60.80
2023-05-19T05:30:36.972Z,60.58
2023-05-19T05:33:04.202Z,60.30
2023-05-19T05:35:31.571Z,60.37
2023-05-19T05:37:59.111Z,60.49
2023-05-19T05:40:26.304Z,60.69
2023-05-19T05:42:56.302Z,60.26
2023-05-19T05:45:23.527Z,60.10
2023-05-19T05:47:50.938Z,59.73
2023-05-19T05:50:18.707Z,59.51
2023-05-19T05:52:47.417Z,59.06
2023-05-19T05:55:17.533Z,58.26
2023-05-19T05:57:44.943Z,58.73
2023-05-19T06:00:15.953Z,58.41
2023-05-19T06:02:49.403Z,58.51
2023-05-19T06:05:17.123Z,58.70
2023-05-19T06:07:44.328Z,58.45
2023-05-19T06:10:11.850Z,58.74
2023-05-19T06:12:43.192Z,58.95
2023-05-19T06:15:10.480Z,58.48
2023-05-19T06:17:37.651Z,58.46
2023-05-19T06:20:08.765Z,58.84
2023-05-19T06:22:36.194Z,58.79
2023-05-19T06:25:03.706Z,58.30
2023-05-19T06:27:32.649Z,58.57
2023-05-19T06:30:02.450Z,58.79
2023-05-19T06:32:29.958Z,58.75
2023-05-19T06:34:57.087Z,59.24
2023-05-19T06:37:24.209Z,59.46
2023-05-19T06:39:54.316Z,59.09
2023-05-19T06:42:25.271Z,59.01
2023-05-19T06:44:53.106Z,59.22
2023-05-19T06:47:20.303Z,59.53
2023-05-19T06:49:51.566Z,58.93
2023-05-19T06:52:18.627Z,59.15
2023-05-19T06:54:46.008Z,59.40
2023-05-19T06:57:13.108Z,58.95
2023-05-19T06:59:43.572Z,59.28
2023-05-19T07:02:10.762Z,58.99
2023-05-19T07:04:39.519Z,58.84
2023-05-19T07:07:06.616Z,58.87
2023-05-19T07:09:33.781Z,59.14
2023-05-19T07:12:01.390Z,58.81
2023-05-19T07:14:28.528Z,58.73
2023-05-19T07:16:55.634Z,58.69
2023-05-19T07:19:24.029Z,57.83
2023-05-19T07:21:51.475Z,57.59
2023-05-19T07:24:19.512Z,57.81
2023-05-19T07:26:46.618Z,57.05
2023-05-19T07:29:13.712Z,57.06
2023-05-19T07:31:40.921Z,56.54
2023-05-19T07:34:08.705Z,56.49
2023-05-19T07:36:35.974Z,55.48
2023-05-19T07:39:03.396Z,55.07
2023-05-19T07:41:30.693Z,54.61
2023-05-19T07:43:57.798Z,53.41
2023-05-19T07:46:24.964Z,53.15
2023-05-19T07:48:52.206Z,52.82
2023-05-19T07:51:19.531Z,52.55
2023-05-19T07:53:48.454Z,51.59
2023-05-19T07:56:15.644Z,51.25
2023-05-19T07:58:42.761Z,50.60
2023-05-19T08:01:09.870Z,50.52
2023-05-19T08:03:37.112Z,48.42
2023-05-19T08:06:04.570Z,49.18
2023-05-19T08:08:33.259Z,48.84
2023-05-19T08:11:04.757Z,47.65
2023-05-19T08:13:31.848Z,48.12
2023-05-19T08:16:00.110Z,47.54
2023-05-19T08:18:27.299Z,46.63
2023-05-19T08:20:54.565Z,46.87
2023-05-19T08:23:21.875Z,46.60
2023-05-19T08:25:48.985Z,45.79
2023-05-19T08:28:16.052Z,45.30
2023-05-19T08:30:43.123Z,46.14
2023-05-19T08:33:10.795Z,45.36
2023-05-19T08:35:37.978Z,45.73
2023-05-19T08:38:05.060Z,46.36
2023-05-19T08:40:33.941Z,45.09
2023-05-19T08:43:01.257Z,46.03
2023-05-19T08:45:28.390Z,46.84
2023-05-19T08:47:55.942Z,47.38
2023-05-19T08:50:25.158Z,46.33
2023-05-19T08:52:57.719Z,46.89
2023-05-19T08:55:38.695Z,46.17
2023-05-19T08:58:05.991Z,46.98
2023-05-19T09:00:34.003Z,47.11
2023-05-19T09:05:33.832Z,46.62
2023-05-19T09:08:02.757Z,47.18
2023-05-19T09:10:29.854Z,46.88
2023-05-19T09:12:56.976Z,47.02
2023-05-19T09:15:27.810Z,46.91
2023-05-19T09:18:12.021Z,45.69
2023-05-19T09:20:40.654Z,46.13
2023-05-19T09:23:08.327Z,46.59
2023-05-19T09:25:35.555Z,45.44
2023-05-19T09:28:02.873Z,45.37
2023-05-19T09:30:30.035Z,46.04
2023-05-19T09:32:57.191Z,45.61
2023-05-19T09:35:24.754Z,44.45
2023-05-19T09:37:51.902Z,43.87
2023-05-19T09:40:19.045Z,42.70
2023-05-19T09:42:46.194Z,41.74
2023-05-19T09:45:13.388Z,41.28
2023-05-19T09:47:41.879Z,41.70
2023-05-19T09:50:10.915Z,41.84
2023-05-19T09:52:38.973Z,42.20
2023-05-19T09:55:09.595Z,42.34
2023-05-19T09:57:37.632Z,40.62
2023-05-19T10:00:14.394Z,40.93
2023-05-19T10:02:44.985Z,40.72
2023-05-19T10:05:16.987Z,39.84
2023-05-19T10:07:45.757Z,40.59
2023-05-19T10:10:13.952Z,38.70
2023-05-19T10:12:41.779Z,38.61
2023-05-19T10:15:10.854Z,39.61
2023-05-19T10:17:39.130Z,39.22
2023-05-19T10:20:17.137Z,37.49
2023-05-19T10:22:46.193Z,37.97
2023-05-19T10:25:15.173Z,39.52
2023-05-19T10:27:45.120Z,39.70
2023-05-19T10:30:16.477Z,39.78
2023-05-19T10:32:45.243Z,40.16
2023-05-19T10:35:20.329Z,40.55
2023-05-19T10:37:58.331Z,40.39
2023-05-19T10:40:28.823Z,40.19
2023-05-19T10:43:08.599Z,39.97
2023-05-19T10:45:42.270Z,39.56
2023-05-19T10:48:15.529Z,40.00
2023-05-19T10:50:46.817Z,38.92
2023-05-19T10:53:18.257Z,40.18
2023-05-19T10:56:03.422Z,39.08
2023-05-19T10:58:40.888Z,39.28
2023-05-19T11:01:09.999Z,39.72
2023-05-19T11:04:07.996Z,40.18
2023-05-19T11:06:36.301Z,40.75
2023-05-19T11:09:12.516Z,40.12
2023-05-19T11:11:48.116Z,39.53
2023-05-19T11:14:20.147Z,38.64
2023-05-19T11:16:52.001Z,38.11
2023-05-19T11:19:28.397Z,38.27
2023-05-19T11:21:57.157Z,39.13
2023-05-19T11:24:35.137Z,39.24
2023-05-19T11:27:31.733Z,39.61
2023-05-19T11:30:11.433Z,39.24
2023-05-19T11:32:41.229Z,39.07
2023-05-19T11:35:09.919Z,38.80
2023-05-19T11:37:37.062Z,40.74
2023-05-19T11:40:08.049Z,41.34
2023-05-19T11:42:37.234Z,41.20
2023-05-19T11:45:05.031Z,42.66
2023-05-19T11:47:46.031Z,42.95
2023-05-19T11:50:21.983Z,43.61
2023-05-19T11:52:49.083Z,43.37
2023-05-19T11:55:17.310Z,42.93
2023-05-19T11:58:05.482Z,42.80
2023-05-19T12:00:37.944Z,43.27
2023-05-19T12:03:06.876Z,43.73
2023-05-19T12:05:40.860Z,43.04
2023-05-19T12:08:11.256Z,43.86
2023-05-19T12:10:39.183Z,43.22
2023-05-19T12:13:09.006Z,43.42
2023-05-19T12:15:37.249Z,42.68
2023-05-19T12:18:04.462Z,42.52
2023-05-19T12:20:32.519Z,42.81
2023-05-19T12:23:00.676Z,43.01
2023-05-19T12:25:29.262Z,43.39
2023-05-19T12:28:00.205Z,42.84
2023-05-19T12:30:29.052Z,43.36
2023-05-19T12:32:57.817Z,43.42
2023-05-19T12:35:36.197Z,43.52
2023-05-19T12:38:05.359Z,43.35
2023-05-19T12:40:36.423Z,43.26
2023-05-19T12:43:04.468Z,43.24
2023-05-19T12:45:35.621Z,43.31
2023-05-19T12:48:06.733Z,43.72
2023-05-19T12:50:34.544Z,43.64
2023-05-19T12:53:02.065Z,43.98
2023-05-19T12:55:29.734Z,44.51
2023-05-19T12:57:58.106Z,43.68
2023-05-19T13:00:28.534Z,44.25
2023-05-19T13:03:01.880Z,44.10
2023-05-19T13:05:31.473Z,44.34
2023-05-19T13:07:59.961Z,44.16
2023-05-19T13:10:27.859Z,44.37
2023-05-19T13:12:55.757Z,44.61
2023-05-19T13:15:26.719Z,45.00
2023-05-19T13:17:54.581Z,44.73
2023-05-19T13:20:22.012Z,45.07
2023-05-19T13:22:49.507Z,45.29
2023-05-19T13:25:16.923Z,45.74
2023-05-19T13:27:47.909Z,45.97
2023-05-19T13:30:20.392Z,45.80
2023-05-19T13:32:47.904Z,46.50
2023-05-19T13:35:15.532Z,45.91
2023-05-19T13:37:42.852Z,45.82
2023-05-19T13:40:10.974Z,46.00
2023-05-19T13:42:38.152Z,46.46
2023-05-19T13:45:05.590Z,46.10
2023-05-19T13:47:32.880Z,46.13
2023-05-19T13:50:00.050Z,46.30
2023-05-19T13:52:29.096Z,46.44
2023-05-19T13:54:57.599Z,46.17
2023-05-19T13:57:25.501Z,46.74
2023-05-19T14:00:01.966Z,46.86
2023-05-19T14:02:30.883Z,46.83
2023-05-19T14:04:58.195Z,47.05
2023-05-19T14:07:25.742Z,46.78
2023-05-19T14:09:53.302Z,46.80
2023-05-19T14:12:23.307Z,46.85
2023-05-19T14:14:52.413Z,47.17
2023-05-19T14:17:19.488Z,47.28
2023-05-19T14:19:46.582Z,47.86
2023-05-19T14:22:13.700Z,47.82
2023-05-19T14:24:41.578Z,48.54
2023-05-19T14:27:08.711Z,47.94
2023-05-19T14:29:35.810Z,48.14
2023-05-19T14:32:03.832Z,48.51
2023-05-19T14:34:31.022Z,48.36
2023-05-19T14:36:58.109Z,48.64
2023-05-19T14:39:25.194Z,48.50
2023-05-19T14:41:53.139Z,48.66
2023-05-19T14:44:20.396Z,49.57
2023-05-19T14:46:47.531Z,49.08
2023-05-19T14:49:15.597Z,49.04
2023-05-19T14:51:42.669Z,49.11
2023-05-19T14:54:09.893Z,49.57
2023-05-19T14:56:37.014Z,49.65
2023-05-19T14:59:04.483Z,49.54
2023-05-19T15:01:32.366Z,49.91
2023-05-19T15:03:59.611Z,49.98
2023-05-19T15:06:26.850Z,49.93
2023-05-19T15:08:53.934Z,50.01
2023-05-19T15:11:21.069Z,49.73
2023-05-19T15:13:48.172Z,49.78
2023-05-19T15:16:16.950Z,50.08
2023-05-19T15:18:45.497Z,50.35
2023-05-19T15:21:12.796Z,50.47
2023-05-19T15:23:39.888Z,50.43
2023-05-19T15:26:07.056Z,50.74
2023-05-19T15:28:34.353Z,50.44
2023-05-19T15:31:01.542Z,50.73
2023-05-19T15:33:28.744Z,51.28
2023-05-19T15:35:57.152Z,51.34
2023-05-19T15:38:24.309Z,50.99
2023-05-19T15:40:51.638Z,51.10
2023-05-19T15:43:19.935Z,51.35
2023-05-19T15:45:47.941Z,51.07
2023-05-19T15:48:15.090Z,51.21
2023-05-19T15:50:42.324Z,51.14
2023-05-19T15:53:10.601Z,51.15
2023-05-19T15:55:37.686Z,51.18
2023-05-19T15:58:04.831Z,51.13
2023-05-19T16:00:32.097Z,50.85
2023-05-19T16:02:59.438Z,51.02
2023-05-19T16:05:26.784Z,51.09
2023-05-19T16:07:53.929Z,51.73
2023-05-19T16:10:21.416Z,51.33
2023-05-19T16:12:48.483Z,51.21
2023-05-19T16:15:15.640Z,51.31
2023-05-19T16:17:42.835Z,51.66
2023-05-19T16:20:10.630Z,52.23
2023-05-19T16:22:37.749Z,52.56
2023-05-19T16:25:05.485Z,52.19
2023-05-19T16:27:32.558Z,52.75
2023-05-19T16:30:01.120Z,52.91
2023-05-19T16:32:28.329Z,53.24
2023-05-19T16:34:55.431Z,53.06
2023-05-19T16:37:22.501Z,53.17
2023-05-19T16:39:49.808Z,53.28
2023-05-19T16:42:16.881Z,53.63
2023-05-19T16:44:43.985Z,53.74
2023-05-19T16:47:11.186Z,54.05
2023-05-19T16:49:40.352Z,54.11
2023-05-19T16:52:08.015Z,54.46
2023-05-19T16:54:35.249Z,54.34
2023-05-19T16:57:02.631Z,54.35
2023-05-19T16:59:29.699Z,54.66
2023-05-19T17:01:56.930Z,54.88
2023-05-19T17:04:24.170Z,54.95
2023-05-19T17:06:51.313Z,55.34
2023-05-19T17:09:24.892Z,55.77
2023-05-19T17:11:52.718Z,55.50
2023-05-19T17:14:19.840Z,55.60
2023-05-19T17:16:47.721Z,56.06
2023-05-19T17:19:16.416Z,56.43
2023-05-19T17:21:43.575Z,56.12
2023-05-19T17:24:11.693Z,56.11
2023-05-19T17:26:38.858Z,56.19
2023-05-19T17:29:06.152Z,56.52
2023-05-19T17:31:33.442Z,57.16
2023-05-19T17:34:00.625Z,56.91
2023-05-19T17:36:27.710Z,57.44
2023-05-19T17:38:54.886Z,57.13
2023-05-19T17:41:22.000Z,56.98
2023-05-19T17:43:49.090Z,57.31
2023-05-19T17:46:16.336Z,57.18
2023-05-19T17:48:43.788Z,57.17
2023-05-19T17:51:11.395Z,57.55
2023-05-19T17:53:38.720Z,58.11
2023-05-19T17:56:07.339Z,58.23
2023-05-19T17:58:34.700Z,58.51
2023-05-19T18:01:02.041Z,58.77
2023-05-19T18:03:29.568Z,58.74
2023-05-19T18:05:56.999Z,58.79
2023-05-19T18:08:24.481Z,58.92
2023-05-19T18:10:52.583Z,59.30
2023-05-19T18:13:19.726Z,59.14
2023-05-19T18:15:46.873Z,59.37
2023-05-19T18:18:14.022Z,59.57
2023-05-19T18:20:45.080Z,60.14
2023-05-19T18:23:12.486Z,59.76
2023-05-19T18:25:39.584Z,60.19
2023-05-19T18:28:06.728Z,60.27
2023-05-19T18:30:34.039Z,60.68
2023-05-19T18:33:04.072Z,60.62
2023-05-19T18:35:31.535Z,60.37
2023-05-19T18:37:58.639Z,60.68
2023-05-19T18:40:25.960Z,60.88
2023-05-19T18:42:53.052Z,60.97
2023-05-19T18:45:20.532Z,61.19
2023-05-19T18:47:47.681Z,61.38
2023-05-19T18:50:14.949Z,61.40
2023-05-19T18:52:42.050Z,61.22
2023-05-19T18:55:09.868Z,61.41
2023-05-19T18:57:36.973Z,61.54
2023-05-19T19:00:04.432Z,61.51
2023-05-19T19:02:31.653Z,61.48
2023-05-19T19:04:58.962Z,62.37
2023-05-19T19:07:27.723Z,62.00
2023-05-19T19:09:54.857Z,62.15
2023-05-19T19:12:21.932Z,62.22
2023-05-19T19:14:49.513Z,62.23
2023-05-19T19:17:16.747Z,62.54
2023-05-19T19:19:43.967Z,62.76
2023-05-19T19:22:11.180Z,62.93
2023-05-19T19:24:38.325Z,63.21
2023-05-19T19:27:05.588Z,62.97
2023-05-19T19:29:32.754Z,62.96
2023-05-19T19:31:59.925Z,62.90
2023-05-19T19:34:27.411Z,63.29
2023-05-19T19:36:54.590Z,63.34
2023-05-19T19:39:21.695Z,63.63
2023-05-19T19:41:48.800Z,64.05
2023-05-19T19:44:15.989Z,63.64
2023-05-19T19:46:43.145Z,64.18
2023-05-19T19:49:10.433Z,64.13
2023-05-19T19:51:37.532Z,64.32
2023-05-19T19:54:04.629Z,64.08
2023-05-19T19:56:32.381Z,64.24
2023-05-19T19:59:00.148Z,64.43
2023-05-19T20:01:27.971Z,64.48
2023-05-19T20:03:55.548Z,63.98
2023-05-19T20:06:23.051Z,64.17
2023-05-19T20:08:50.801Z,64.25
2023-05-19T20:11:17.961Z,64.33
2023-05-19T20:13:45.038Z,64.21
2023-05-19T20:16:12.173Z,64.23
2023-05-19T20:18:39.570Z,64.50
2023-05-19T20:21:06.961Z,64.64
2023-05-19T20:23:34.151Z,64.55
2023-05-19T20:26:11.891Z,64.61
2023-05-19T20:28:40.162Z,64.64
2023-05-19T20:31:07.542Z,64.86
2023-05-19T20:33:34.766Z,64.65
2023-05-19T20:36:01.925Z,65.34
2023-05-19T20:38:29.290Z,65.00
2023-05-19T20:40:56.476Z,65.31
2023-05-19T20:43:23.590Z,65.69
2023-05-19T20:45:51.296Z,65.27
2023-05-19T20:48:18.593Z,65.62
2023-05-19T20:50:45.786Z,65.68
2023-05-19T20:53:12.912Z,65.82
2023-05-19T20:55:40.320Z,66.07
2023-05-19T20:58:07.904Z,66.13
2023-05-19T21:00:35.435Z,65.85
2023-05-19T21:03:02.840Z,65.94
2023-05-19T21:05:30.138Z,66.08
2023-05-19T21:07:57.295Z,65.71
2023-05-19T21:10:24.426Z,65.94
2023-05-19T21:12:51.562Z,65.93
2023-05-19T21:15:18.803Z,65.89
2023-05-19T21:17:46.676Z,65.70
2023-05-19T21:20:14.250Z,65.99
2023-05-19T21:22:42.079Z,65.94
2023-05-19T21:25:10.676Z,66.17
2023-05-19T21:27:39.440Z,66.44
2023-05-19T21:30:07.741Z,66.47
2023-05-19T21:32:34.976Z,66.49
2023-05-19T21:35:02.321Z,66.51
2023-05-19T21:37:29.701Z,66.69
2023-05-19T21:39:56.816Z,66.35
2023-05-19T21:42:23.960Z,66.34
2023-05-19T21:44:51.068Z,66.33
2023-05-19T21:47:18.291Z,66.84
2023-05-19T21:49:45.524Z,66.40
2023-05-19T21:52:12.609Z,66.17
2023-05-19T21:54:39.694Z,66.45
2023-05-19T21:57:06.858Z,66.54
2023-05-19T21:59:33.956Z,66.63
2023-05-19T22:02:01.052Z,67.05
2023-05-19T22:04:31.499Z,66.82
2023-05-19T22:06:58.682Z,66.64
2023-05-19T22:09:26.165Z,66.51
2023-05-19T22:11:53.413Z,66.72
2023-05-19T22:14:20.526Z,66.59
2023-05-19T22:16:48.136Z,66.82
2023-05-19T22:19:15.629Z,66.70
2023-05-19T22:21:42.814Z,66.43
2023-05-19T22:24:09.977Z,66.76
2023-05-19T22:26:37.206Z,66.96
2023-05-19T22:29:04.367Z,67.04
2023-05-19T22:31:31.542Z,67.29
2023-05-19T22:33:58.710Z,67.01
2023-05-19T22:36:25.870Z,67.51
2023-05-19T22:38:53.006Z,67.52
2023-05-19T22:41:20.140Z,67.78
2023-05-19T22:43:47.218Z,67.24
2023-05-19T22:46:14.383Z,67.83
2023-05-19T22:48:41.470Z,68.22
2023-05-19T22:51:08.571Z,68.35
2023-05-19T22:53:35.654Z,68.45
2023-05-19T22:56:02.726Z,68.63
2023-05-19T22:58:29.821Z,68.26
2023-05-19T23:00:57.196Z,67.90
2023-05-19T23:03:24.369Z,67.65
2023-05-19T23:05:51.508Z,68.10
2023-05-19T23:08:18.676Z,68.05
2023-05-19T23:10:46.142Z,67.73
2023-05-19T23:13:14.837Z,67.59
2023-05-19T23:15:41.997Z,67.64
2023-05-19T23:18:09.184Z,67.68
2023-05-19T23:20:36.380Z,68.04
2023-05-19T23:23:03.513Z,67.26
2023-05-19T23:25:30.671Z,67.82
2023-05-19T23:27:58.009Z,67.45
2023-05-19T23:30:25.119Z,68.09
2023-05-19T23:32:52.972Z,68.07
2023-05-19T23:35:20.561Z,67.73
2023-05-19T23:37:48.382Z,68.07
2023-05-19T23:40:15.517Z,67.83
2023-05-19T23:42:44.472Z,67.78
2023-05-19T23:45:11.724Z,68.15
2023-05-19T23:47:39.007Z,67.91
2023-05-19T23:50:06.590Z,68.03
2023-05-19T23:52:33.721Z,67.83
2023-05-19T23:55:01.286Z,67.78
2023-05-19T23:57:28.372Z,68.04
2023-05-19T23:59:55.600Z,68.43
